Terminal Aerodrome Forecast
Issued by NWS

Home | Current Version | Previous Version | Text Only | Print | Product List | Glossary On
Versions: 1 2 3 4 5 6 7 8 9 10 11 12 13 14
000
FTUS42 TJSJ 281100
TAFJBQ
TAF
TJBQ 281125Z 2812/2912 VRB03KT P6SM FEW030
     FM281330 09010KT P6SM FEW025
     FM281600 05010KT P6SM VCSH FEW025 SCT050
     FM282200 VRB04KT P6SM SCT025
      AMD NOT SKED 2902/2911=

USA.gov is the U.S. government's official web portal to all federal, state and local government web resources and services.